sensor_id;sensor_type;location;lat;lon;timestamp;pressure;altitude;pressure_sealevel;temperature;humidity
24666;BME280;29726;53.532;-1.478;2023-02-24T00:02:00;100651.38;;;10.99;94.92
24666;BME280;29726;53.532;-1.478;2023-02-24T00:04:46;100641.13;;;10.96;95.24
24666;BME280;29726;53.532;-1.478;2023-02-24T00:07:34;100633.19;;;10.94;95.10
24666;BME280;29726;53.532;-1.478;2023-02-24T00:10:18;100631.97;;;10.95;95.09
24666;BME280;29726;53.532;-1.478;2023-02-24T00:13:03;100626.06;;;10.93;95.16
24666;BME280;29726;53.532;-1.478;2023-02-24T00:15:58;100622.97;;;10.91;95.53
24666;BME280;29726;53.532;-1.478;2023-02-24T00:18:44;100627.47;;;10.98;95.71
24666;BME280;29726;53.532;-1.478;2023-02-24T00:21:29;100618.78;;;10.96;95.90
24666;BME280;29726;53.532;-1.478;2023-02-24T00:24:13;100619.53;;;10.96;95.76
24666;BME280;29726;53.532;-1.478;2023-02-24T00:26:59;100564.97;;;10.68;95.92
24666;BME280;29726;53.532;-1.478;2023-02-24T00:29:44;100611.16;;;10.96;95.76
24666;BME280;29726;53.532;-1.478;2023-02-24T00:32:28;100607.59;;;10.96;96.16
24666;BME280;29726;53.532;-1.478;2023-02-24T00:35:12;100590.69;;;10.90;96.15
24666;BME280;29726;53.532;-1.478;2023-02-24T00:37:57;100575.19;;;10.89;96.45
24666;BME280;29726;53.532;-1.478;2023-02-24T00:40:41;100576.28;;;10.92;96.47
24666;BME280;29726;53.532;-1.478;2023-02-24T00:43:27;100583.72;;;10.95;96.59
24666;BME280;29726;53.532;-1.478;2023-02-24T00:46:19;100556.25;;;10.93;96.80
24666;BME280;29726;53.532;-1.478;2023-02-24T00:49:07;100566.47;;;10.96;97.13
24666;BME280;29726;53.532;-1.478;2023-02-24T00:51:53;100556.72;;;10.92;97.08
24666;BME280;29726;53.532;-1.478;2023-02-24T00:54:38;100528.03;;;10.82;97.41
24666;BME280;29726;53.532;-1.478;2023-02-24T00:57:22;100546.91;;;10.96;97.26
24666;BME280;29726;53.532;-1.478;2023-02-24T01:00:07;100537.94;;;10.92;97.75
24666;BME280;29726;53.532;-1.478;2023-02-24T01:02:57;100518.09;;;10.90;97.96
24666;BME280;29726;53.532;-1.478;2023-02-24T01:05:42;100517.44;;;10.95;98.04
24666;BME280;29726;53.532;-1.478;2023-02-24T01:08:26;100512.34;;;10.94;98.51
24666;BME280;29726;53.532;-1.478;2023-02-24T01:11:09;100512.81;;;10.92;98.38
24666;BME280;29726;53.532;-1.478;2023-02-24T01:14:15;100494.66;;;10.88;98.69
24666;BME280;29726;53.532;-1.478;2023-02-24T01:17:00;100494.19;;;10.89;98.65
24666;BME280;29726;53.532;-1.478;2023-02-24T01:19:45;100449.41;;;10.66;98.79
24666;BME280;29726;53.532;-1.478;2023-02-24T01:22:32;100488.75;;;10.95;98.93
24666;BME280;29726;53.532;-1.478;2023-02-24T01:25:17;100491.84;;;10.97;98.71
24666;BME280;29726;53.532;-1.478;2023-02-24T01:28:03;100483.03;;;10.89;99.07
24666;BME280;29726;53.532;-1.478;2023-02-24T01:30:47;100480.69;;;10.97;99.04
24666;BME280;29726;53.532;-1.478;2023-02-24T01:33:33;100477.41;;;10.98;98.97
24666;BME280;29726;53.532;-1.478;2023-02-24T01:36:24;100477.88;;;10.97;98.59
24666;BME280;29726;53.532;-1.478;2023-02-24T01:39:10;100466.56;;;10.91;98.91
24666;BME280;29726;53.532;-1.478;2023-02-24T01:41:54;100485.66;;;10.93;98.96
24666;BME280;29726;53.532;-1.478;2023-02-24T01:47:29;100476.78;;;10.94;98.79
24666;BME280;29726;53.532;-1.478;2023-02-24T01:50:16;100478.34;;;10.95;99.24
24666;BME280;29726;53.532;-1.478;2023-02-24T01:53:06;100462.84;;;10.94;100.00
24666;BME280;29726;53.532;-1.478;2023-02-24T01:55:51;100463.13;;;10.96;99.91
24666;BME280;29726;53.532;-1.478;2023-02-24T01:58:35;100443.03;;;10.83;99.97
24666;BME280;29726;53.532;-1.478;2023-02-24T02:01:20;100463.91;;;10.97;99.79
24666;BME280;29726;53.532;-1.478;2023-02-24T02:04:15;100451.66;;;10.94;100.00
24666;BME280;29726;53.532;-1.478;2023-02-24T02:07:01;100405.53;;;10.66;100.00
24666;BME280;29726;53.532;-1.478;2023-02-24T02:09:46;100447.16;;;10.97;100.00
24666;BME280;29726;53.532;-1.478;2023-02-24T02:12:33;100444.38;;;10.97;100.00
24666;BME280;29726;53.532;-1.478;2023-02-24T02:15:20;100437.56;;;10.89;100.00
24666;BME280;29726;53.532;-1.478;2023-02-24T02:18:28;100438.47;;;10.95;100.00
24666;BME280;29726;53.532;-1.478;2023-02-24T02:21:55;100436.44;;;10.95;100.00
24666;BME280;29726;53.532;-1.478;2023-02-24T02:24:52;100425.94;;;10.90;100.00
24666;BME280;29726;53.532;-1.478;2023-02-24T02:30:58;100408.22;;;10.93;100.00
24666;BME280;29726;53.532;-1.478;2023-02-24T02:36:54;100361.78;;;10.72;100.00
24666;BME280;29726;53.532;-1.478;2023-02-24T02:46:09;100398.25;;;11.01;100.00
24666;BME280;29726;53.532;-1.478;2023-02-24T02:48:58;100380.13;;;10.97;100.00
24666;BME280;29726;53.532;-1.478;2023-02-24T02:51:55;100380.28;;;11.02;100.00
24666;BME280;29726;53.532;-1.478;2023-02-24T02:54:48;100379.03;;;11.03;100.00
24666;BME280;29726;53.532;-1.478;2023-02-24T02:57:39;100368.97;;;10.97;100.00
24666;BME280;29726;53.532;-1.478;2023-02-24T03:00:35;100374.19;;;11.04;100.00
24666;BME280;29726;53.532;-1.478;2023-02-24T03:03:20;100376.53;;;11.05;100.00
24666;BME280;29726;53.532;-1.478;2023-02-24T03:06:19;100352.78;;;11.01;100.00
24666;BME280;29726;53.532;-1.478;2023-02-24T03:09:13;100354.34;;;11.02;100.00
24666;BME280;29726;53.532;-1.478;2023-02-24T03:12:03;100307.63;;;10.79;100.00
24666;BME280;29726;53.532;-1.478;2023-02-24T03:14:58;100334.63;;;11.05;100.00
24666;BME280;29726;53.532;-1.478;2023-02-24T03:17:44;100334.72;;;11.11;100.00
24666;BME280;29726;53.532;-1.478;2023-02-24T03:20:35;100335.50;;;11.11;100.00
24666;BME280;29726;53.532;-1.478;2023-02-24T03:23:24;100327.13;;;11.11;100.00
24666;BME280;29726;53.532;-1.478;2023-02-24T03:26:14;100318.75;;;11.11;100.00
24666;BME280;29726;53.532;-1.478;2023-02-24T03:29:27;100313.44;;;11.13;100.00
24666;BME280;29726;53.532;-1.478;2023-02-24T03:32:29;100308.16;;;11.15;100.00
24666;BME280;29726;53.532;-1.478;2023-02-24T03:35:19;100288.19;;;11.08;100.00
24666;BME280;29726;53.532;-1.478;2023-02-24T03:38:04;100294.66;;;11.14;100.00
24666;BME280;29726;53.532;-1.478;2023-02-24T03:40:49;100288.91;;;11.17;100.00
24666;BME280;29726;53.532;-1.478;2023-02-24T03:43:38;100282.25;;;11.15;100.00
24666;BME280;29726;53.532;-1.478;2023-02-24T03:46:24;100274.94;;;11.17;100.00
24666;BME280;29726;53.532;-1.478;2023-02-24T03:49:11;100276.19;;;11.16;100.00
24666;BME280;29726;53.532;-1.478;2023-02-24T03:52:14;100269.63;;;11.19;100.00
24666;BME280;29726;53.532;-1.478;2023-02-24T03:55:20;100280.34;;;11.21;100.00
24666;BME280;29726;53.532;-1.478;2023-02-24T04:01:33;100253.66;;;11.20;100.00
24666;BME280;29726;53.532;-1.478;2023-02-24T04:07:39;100257.50;;;11.22;100.00
24666;BME280;29726;53.532;-1.478;2023-02-24T04:10:32;100258.28;;;11.23;100.00
24666;BME280;29726;53.532;-1.478;2023-02-24T04:13:37;100248.66;;;11.24;100.00
24666;BME280;29726;53.532;-1.478;2023-02-24T04:16:51;100243.34;;;11.26;100.00
24666;BME280;29726;53.532;-1.478;2023-02-24T04:19:39;100240.56;;;11.26;100.00
24666;BME280;29726;53.532;-1.478;2023-02-24T04:22:26;100232.97;;;11.26;100.00
24666;BME280;29726;53.532;-1.478;2023-02-24T04:25:12;100231.41;;;11.25;100.00
24666;BME280;29726;53.532;-1.478;2023-02-24T04:28:00;100230.16;;;11.26;100.00
24666;BME280;29726;53.532;-1.478;2023-02-24T04:30:48;100223.91;;;11.31;100.00
24666;BME280;29726;53.532;-1.478;2023-02-24T04:33:34;100229.50;;;11.31;100.00
24666;BME280;29726;53.532;-1.478;2023-02-24T04:36:19;100210.28;;;11.24;100.00
24666;BME280;29726;53.532;-1.478;2023-02-24T04:39:04;100228.25;;;11.32;100.00
24666;BME280;29726;53.532;-1.478;2023-02-24T04:41:48;100235.38;;;11.33;100.00
24666;BME280;29726;53.532;-1.478;2023-02-24T04:44:33;100206.06;;;11.29;100.00
24666;BME280;29726;53.532;-1.478;2023-02-24T04:47:17;100215.31;;;11.35;100.00
24666;BME280;29726;53.532;-1.478;2023-02-24T04:50:02;100213.31;;;11.35;100.00
24666;BME280;29726;53.532;-1.478;2023-02-24T04:52:54;100202.13;;;11.35;100.00
24666;BME280;29726;53.532;-1.478;2023-02-24T04:55:41;100201.56;;;11.31;100.00
24666;BME280;29726;53.532;-1.478;2023-02-24T04:58:26;100193.16;;;11.31;100.00
24666;BME280;29726;53.532;-1.478;2023-02-24T05:01:10;100192.97;;;11.35;100.00
24666;BME280;29726;53.532;-1.478;2023-02-24T05:03:54;100187.19;;;11.38;100.00
24666;BME280;29726;53.532;-1.478;2023-02-24T05:06:41;100185.66;;;11.37;100.00
24666;BME280;29726;53.532;-1.478;2023-02-24T05:09:26;100174.19;;;11.35;100.00
24666;BME280;29726;53.532;-1.478;2023-02-24T05:12:12;100190.00;;;11.38;100.00
24666;BME280;29726;53.532;-1.478;2023-02-24T05:14:56;100175.44;;;11.34;100.00
24666;BME280;29726;53.532;-1.478;2023-02-24T05:17:44;100190.09;;;11.44;100.00
24666;BME280;29726;53.532;-1.478;2023-02-24T05:20:28;100183.66;;;11.38;100.00
24666;BME280;29726;53.532;-1.478;2023-02-24T05:23:36;100198.00;;;11.45;100.00
24666;BME280;29726;53.532;-1.478;2023-02-24T05:26:22;100190.38;;;11.46;100.00
24666;BME280;29726;53.532;-1.478;2023-02-24T05:29:10;100193.19;;;11.46;100.00
24666;BME280;29726;53.532;-1.478;2023-02-24T05:31:56;100195.97;;;11.46;100.00
24666;BME280;29726;53.532;-1.478;2023-02-24T05:34:43;100172.47;;;11.38;100.00
24666;BME280;29726;53.532;-1.478;2023-02-24T05:37:27;100176.13;;;11.44;100.00
24666;BME280;29726;53.532;-1.478;2023-02-24T05:40:11;100168.22;;;11.42;100.00
24666;BME280;29726;53.532;-1.478;2023-02-24T05:42:58;100172.84;;;11.45;100.00
24666;BME280;29726;53.532;-1.478;2023-02-24T05:45:47;100158.00;;;11.39;100.00
24666;BME280;29726;53.532;-1.478;2023-02-24T05:48:32;100171.88;;;11.48;100.00
24666;BME280;29726;53.532;-1.478;2023-02-24T05:51:18;100169.84;;;11.49;100.00
24666;BME280;29726;53.532;-1.478;2023-02-24T05:54:10;100166.59;;;11.50;100.00
24666;BME280;29726;53.532;-1.478;2023-02-24T05:56:57;100159.66;;;11.46;100.00
24666;BME280;29726;53.532;-1.478;2023-02-24T05:59:43;100168.59;;;11.50;100.00
24666;BME280;29726;53.532;-1.478;2023-02-24T06:02:27;100156.66;;;11.49;100.00
24666;BME280;29726;53.532;-1.478;2023-02-24T06:05:12;100153.56;;;11.47;100.00
24666;BME280;29726;53.532;-1.478;2023-02-24T06:08:08;100156.16;;;11.51;100.00
24666;BME280;29726;53.532;-1.478;2023-02-24T06:10:55;100154.06;;;11.46;100.00
24666;BME280;29726;53.532;-1.478;2023-02-24T06:13:40;100067.72;;;11.04;100.00
24666;BME280;29726;53.532;-1.478;2023-02-24T06:16:28;100139.41;;;11.51;100.00
24666;BME280;29726;53.532;-1.478;2023-02-24T06:19:12;100096.25;;;11.23;100.00
24666;BME280;29726;53.532;-1.478;2023-02-24T06:21:58;100133.81;;;11.51;100.00
24666;BME280;29726;53.532;-1.478;2023-02-24T06:24:45;100126.09;;;11.46;100.00
24666;BME280;29726;53.532;-1.478;2023-02-24T06:27:29;100140.94;;;11.52;100.00
24666;BME280;29726;53.532;-1.478;2023-02-24T06:30:13;100143.16;;;11.48;100.00
24666;BME280;29726;53.532;-1.478;2023-02-24T06:32:58;100136.22;;;11.43;100.00
24666;BME280;29726;53.532;-1.478;2023-02-24T06:35:41;100139.41;;;11.51;100.00
24666;BME280;29726;53.532;-1.478;2023-02-24T06:38:25;100134.78;;;11.48;100.00
24666;BME280;29726;53.532;-1.478;2023-02-24T06:41:09;100145.00;;;11.51;100.00
24666;BME280;29726;53.532;-1.478;2023-02-24T06:43:53;100147.38;;;11.43;100.00
24666;BME280;29726;53.532;-1.478;2023-02-24T06:46:38;100153.66;;;11.52;100.00
24666;BME280;29726;53.532;-1.478;2023-02-24T06:49:22;100143.63;;;11.46;100.00
24666;BME280;29726;53.532;-1.478;2023-02-24T06:52:07;100135.16;;;11.41;100.00
24666;BME280;29726;53.532;-1.478;2023-02-24T06:54:51;100161.28;;;11.52;100.00
24666;BME280;29726;53.532;-1.478;2023-02-24T06:57:35;100151.38;;;11.51;100.00
24666;BME280;29726;53.532;-1.478;2023-02-24T07:00:19;100154.44;;;11.53;100.00
24666;BME280;29726;53.532;-1.478;2023-02-24T07:03:06;100157.53;;;11.55;100.00
24666;BME280;29726;53.532;-1.478;2023-02-24T07:05:58;100169.19;;;11.53;100.00
24666;BME280;29726;53.532;-1.478;2023-02-24T07:09:06;100154.44;;;11.53;100.00
24666;BME280;29726;53.532;-1.478;2023-02-24T07:11:53;100162.84;;;11.53;100.00
24666;BME280;29726;53.532;-1.478;2023-02-24T07:14:38;100163.31;;;11.52;100.00
24666;BME280;29726;53.532;-1.478;2023-02-24T07:17:23;100169.69;;;11.52;100.00
24666;BME280;29726;53.532;-1.478;2023-02-24T07:20:07;100174.00;;;11.53;100.00
24666;BME280;29726;53.532;-1.478;2023-02-24T07:22:54;100169.19;;;11.53;100.00
24666;BME280;29726;53.532;-1.478;2023-02-24T07:25:38;100180.69;;;11.56;100.00
24666;BME280;29726;53.532;-1.478;2023-02-24T07:28:24;100126.00;;;11.26;100.00
24666;BME280;29726;53.532;-1.478;2023-02-24T07:31:11;100167.53;;;11.47;100.00
24666;BME280;29726;53.532;-1.478;2023-02-24T07:33:55;100172.75;;;11.54;100.00
24666;BME280;29726;53.532;-1.478;2023-02-24T07:36:40;100189.06;;;11.56;100.00
24666;BME280;29726;53.532;-1.478;2023-02-24T07:39:33;100186.84;;;11.59;100.00
24666;BME280;29726;53.532;-1.478;2023-02-24T07:42:17;100176.91;;;11.58;100.00
24666;BME280;29726;53.532;-1.478;2023-02-24T07:45:01;100174.91;;;11.59;100.00
24666;BME280;29726;53.532;-1.478;2023-02-24T07:47:47;100163.72;;;11.59;100.00
24666;BME280;29726;53.532;-1.478;2023-02-24T07:50:32;100162.19;;;11.58;100.00
24666;BME280;29726;53.532;-1.478;2023-02-24T07:53:16;100182.88;;;11.66;100.00
24666;BME280;29726;53.532;-1.478;2023-02-24T07:58:58;100180.66;;;11.70;100.00
24666;BME280;29726;53.532;-1.478;2023-02-24T08:01:43;100165.94;;;11.69;100.00
24666;BME280;29726;53.532;-1.478;2023-02-24T08:04:32;100133.34;;;11.52;100.00
24666;BME280;29726;53.532;-1.478;2023-02-24T08:07:18;100150.59;;;11.65;100.00
24666;BME280;29726;53.532;-1.478;2023-02-24T08:10:08;100165.53;;;11.76;100.00
24666;BME280;29726;53.532;-1.478;2023-02-24T08:13:12;100160.44;;;11.75;100.00
24666;BME280;29726;53.532;-1.478;2023-02-24T08:15:56;100167.56;;;11.76;100.00
24666;BME280;29726;53.532;-1.478;2023-02-24T08:18:40;100162.56;;;11.80;100.00
24666;BME280;29726;53.532;-1.478;2023-02-24T08:21:32;100156.28;;;11.70;100.00
24666;BME280;29726;53.532;-1.478;2023-02-24T08:24:22;100161.28;;;11.81;100.00
24666;BME280;29726;53.532;-1.478;2023-02-24T08:27:07;100142.47;;;11.81;100.00
24666;BME280;29726;53.532;-1.478;2023-02-24T08:29:53;100161.69;;;11.88;100.00
24666;BME280;29726;53.532;-1.478;2023-02-24T08:32:46;100159.34;;;11.87;100.00
24666;BME280;29726;53.532;-1.478;2023-02-24T08:35:37;100160.97;;;11.93;100.00
24666;BME280;29726;53.532;-1.478;2023-02-24T08:38:29;100144.00;;;11.97;100.00
24666;BME280;29726;53.532;-1.478;2023-02-24T08:41:22;100098.03;;;11.69;100.00
24666;BME280;29726;53.532;-1.478;2023-02-24T08:44:26;100149.97;;;11.90;100.00
24666;BME280;29726;53.532;-1.478;2023-02-24T08:47:11;100146.13;;;12.02;100.00
24666;BME280;29726;53.532;-1.478;2023-02-24T08:49:56;100157.59;;;12.04;100.00
24666;BME280;29726;53.532;-1.478;2023-02-24T08:52:44;100168.28;;;12.05;100.00
24666;BME280;29726;53.532;-1.478;2023-02-24T08:55:28;100151.59;;;12.11;100.00
24666;BME280;29726;53.532;-1.478;2023-02-24T08:58:15;100145.44;;;12.07;100.00
24666;BME280;29726;53.532;-1.478;2023-02-24T09:01:01;100135.06;;;12.13;100.00
24666;BME280;29726;53.532;-1.478;2023-02-24T09:03:57;100135.34;;;12.15;100.00
24666;BME280;29726;53.532;-1.478;2023-02-24T09:09:28;100121.72;;;12.22;100.00
24666;BME280;29726;53.532;-1.478;2023-02-24T09:12:13;100133.75;;;12.28;100.00
24666;BME280;29726;53.532;-1.478;2023-02-24T09:15:04;100055.88;;;11.87;100.00
24666;BME280;29726;53.532;-1.478;2023-02-24T09:17:49;100123.06;;;12.27;100.00
24666;BME280;29726;53.532;-1.478;2023-02-24T09:20:43;100120.56;;;12.29;100.00
24666;BME280;29726;53.532;-1.478;2023-02-24T09:23:41;100159.88;;;12.40;100.00
24666;BME280;29726;53.532;-1.478;2023-02-24T09:26:28;100163.00;;;12.42;100.00
24666;BME280;29726;53.532;-1.478;2023-02-24T09:29:15;100185.66;;;12.44;100.00
24666;BME280;29726;53.532;-1.478;2023-02-24T09:32:18;100171.66;;;12.44;100.00
24666;BME280;29726;53.532;-1.478;2023-02-24T09:35:02;100174.75;;;12.46;100.00
24666;BME280;29726;53.532;-1.478;2023-02-24T09:37:45;100176.84;;;12.51;100.00
24666;BME280;29726;53.532;-1.478;2023-02-24T09:40:33;100174.81;;;12.51;100.00
24666;BME280;29726;53.532;-1.478;2023-02-24T09:43:36;100130.91;;;12.23;100.00
24666;BME280;29726;53.532;-1.478;2023-02-24T09:46:31;100179.94;;;12.53;100.00
24666;BME280;29726;53.532;-1.478;2023-02-24T09:49:17;100176.84;;;12.51;100.00
24666;BME280;29726;53.532;-1.478;2023-02-24T09:52:01;100172.78;;;12.52;100.00
24666;BME280;29726;53.532;-1.478;2023-02-24T09:54:51;100182.44;;;12.51;100.00
24666;BME280;29726;53.532;-1.478;2023-02-24T09:58:10;100175.94;;;12.59;100.00
24666;BME280;29726;53.532;-1.478;2023-02-24T10:07:11;100187.91;;;12.60;100.00
24666;BME280;29726;53.532;-1.478;2023-02-24T10:10:02;100184.91;;;12.63;100.00
24666;BME280;29726;53.532;-1.478;2023-02-24T10:13:18;100190.78;;;12.65;100.00
24666;BME280;29726;53.532;-1.478;2023-02-24T10:16:15;100181.81;;;12.61;100.00
24666;BME280;29726;53.532;-1.478;2023-02-24T10:19:17;100171.59;;;12.58;100.00
24666;BME280;29726;53.532;-1.478;2023-02-24T10:22:17;100174.53;;;12.69;100.00
24666;BME280;29726;53.532;-1.478;2023-02-24T10:25:39;100176.63;;;12.74;100.00
24666;BME280;29726;53.532;-1.478;2023-02-24T10:28:38;100156.47;;;12.70;100.00
24666;BME280;29726;53.532;-1.478;2023-02-24T10:31:31;100165.50;;;12.80;100.00
24666;BME280;29726;53.532;-1.478;2023-02-24T10:34:18;100160.13;;;12.76;100.00
24666;BME280;29726;53.532;-1.478;2023-02-24T10:37:17;100166.84;;;12.84;100.00
24666;BME280;29726;53.532;-1.478;2023-02-24T10:40:05;100159.47;;;12.87;100.00
24666;BME280;29726;53.532;-1.478;2023-02-24T10:43:04;100173.59;;;12.92;100.00
24666;BME280;29726;53.532;-1.478;2023-02-24T10:45:53;100165.44;;;12.94;100.00
24666;BME280;29726;53.532;-1.478;2023-02-24T10:48:56;100176.72;;;13.00;100.00
24666;BME280;29726;53.532;-1.478;2023-02-24T10:51:50;100184.94;;;13.03;100.00
24666;BME280;29726;53.532;-1.478;2023-02-24T10:54:35;100184.16;;;13.03;100.00
24666;BME280;29726;53.532;-1.478;2023-02-24T10:57:47;100192.09;;;13.04;100.00
24666;BME280;29726;53.532;-1.478;2023-02-24T11:00:41;100216.94;;;13.17;100.00
24666;BME280;29726;53.532;-1.478;2023-02-24T11:04:01;100209.34;;;13.23;100.00
24666;BME280;29726;53.532;-1.478;2023-02-24T11:07:12;100223.22;;;13.31;100.00
24666;BME280;29726;53.532;-1.478;2023-02-24T11:10:25;100217.75;;;13.42;100.00
24666;BME280;29726;53.532;-1.478;2023-02-24T11:13:15;100218.84;;;13.50;100.00
24666;BME280;29726;53.532;-1.478;2023-02-24T11:16:18;100210.00;;;13.57;100.00
24666;BME280;29726;53.532;-1.478;2023-02-24T11:19:21;100171.34;;;13.41;100.00
24666;BME280;29726;53.532;-1.478;2023-02-24T11:22:07;100231.38;;;13.80;100.00
24666;BME280;29726;53.532;-1.478;2023-02-24T11:24:55;100225.06;;;13.85;100.00
24666;BME280;29726;53.532;-1.478;2023-02-24T11:27:41;100222.59;;;13.98;100.00
24666;BME280;29726;53.532;-1.478;2023-02-24T11:30:43;100230.34;;;14.09;100.00
24666;BME280;29726;53.532;-1.478;2023-02-24T11:34:08;100258.81;;;14.22;100.00
24666;BME280;29726;53.532;-1.478;2023-02-24T11:39:49;100242.50;;;14.26;100.00
24666;BME280;29726;53.532;-1.478;2023-02-24T11:45:55;100224.56;;;14.49;100.00
24666;BME280;29726;53.532;-1.478;2023-02-24T11:48:50;100232.25;;;14.54;100.00
24666;BME280;29726;53.532;-1.478;2023-02-24T11:51:39;100227.47;;;14.65;100.00
24666;BME280;29726;53.532;-1.478;2023-02-24T11:54:24;100227.28;;;14.74;100.00
24666;BME280;29726;53.532;-1.478;2023-02-24T11:57:16;100222.97;;;14.84;100.00
24666;BME280;29726;53.532;-1.478;2023-02-24T12:00:09;100190.00;;;14.85;100.00
24666;BME280;29726;53.532;-1.478;2023-02-24T12:03:12;100213.63;;;15.09;100.00
24666;BME280;29726;53.532;-1.478;2023-02-24T12:06:12;100202.94;;;15.18;100.00
24666;BME280;29726;53.532;-1.478;2023-02-24T12:09:05;100207.63;;;15.32;100.00
24666;BME280;29726;53.532;-1.478;2023-02-24T12:12:07;100199.19;;;15.43;100.00
24666;BME280;29726;53.532;-1.478;2023-02-24T12:15:01;100199.72;;;15.53;100.00
24666;BME280;29726;53.532;-1.478;2023-02-24T12:20:47;100201.28;;;15.76;100.00
24666;BME280;29726;53.532;-1.478;2023-02-24T12:23:39;100202.56;;;15.86;100.00
24666;BME280;29726;53.532;-1.478;2023-02-24T12:26:36;100199.00;;;15.96;100.00
24666;BME280;29726;53.532;-1.478;2023-02-24T12:30:02;100198.22;;;16.07;100.00
24666;BME280;29726;53.532;-1.478;2023-02-24T12:36:31;100200.78;;;16.27;100.00
24666;BME280;29726;53.532;-1.478;2023-02-24T12:39:28;100172.88;;;16.34;100.00
24666;BME280;29726;53.532;-1.478;2023-02-24T12:42:36;100186.44;;;16.41;100.00
24666;BME280;29726;53.532;-1.478;2023-02-24T12:45:46;100184.66;;;16.44;100.00
24666;BME280;29726;53.532;-1.478;2023-02-24T12:51:41;100169.03;;;16.48;100.00
24666;BME280;29726;53.532;-1.478;2023-02-24T12:54:38;100175.16;;;16.52;100.00
24666;BME280;29726;53.532;-1.478;2023-02-24T12:57:32;100189.22;;;16.58;100.00
24666;BME280;29726;53.532;-1.478;2023-02-24T13:00:29;100189.50;;;16.60;100.00
24666;BME280;29726;53.532;-1.478;2023-02-24T13:03:52;100184.09;;;16.62;100.00
24666;BME280;29726;53.532;-1.478;2023-02-24T13:13:21;100196.88;;;16.68;100.00
24666;BME280;29726;53.532;-1.478;2023-02-24T13:16:10;100172.59;;;16.54;100.00
24666;BME280;29726;53.532;-1.478;2023-02-24T13:19:16;100199.97;;;16.65;100.00
24666;BME280;29726;53.532;-1.478;2023-02-24T13:22:07;100197.13;;;16.70;100.00
24666;BME280;29726;53.532;-1.478;2023-02-24T13:27:58;100185.81;;;16.81;100.00
24666;BME280;29726;53.532;-1.478;2023-02-24T13:30:43;100171.25;;;16.77;100.00
24666;BME280;29726;53.532;-1.478;2023-02-24T13:33:33;100182.72;;;16.90;100.00
24666;BME280;29726;53.532;-1.478;2023-02-24T13:36:22;100172.97;;;16.91;100.00
24666;BME280;29726;53.532;-1.478;2023-02-24T13:39:23;100183.22;;;16.94;100.00
24666;BME280;29726;53.532;-1.478;2023-02-24T13:42:27;100217.00;;;17.05;100.00
24666;BME280;29726;53.532;-1.478;2023-02-24T13:45:17;100215.47;;;17.09;100.00
24666;BME280;29726;53.532;-1.478;2023-02-24T13:48:26;100206.47;;;17.11;100.00
24666;BME280;29726;53.532;-1.478;2023-02-24T13:54:56;100226.94;;;17.17;100.00
24666;BME280;29726;53.532;-1.478;2023-02-24T13:58:01;100236.69;;;17.21;100.00
24666;BME280;29726;53.532;-1.478;2023-02-24T14:00:58;100247.72;;;17.25;100.00
24666;BME280;29726;53.532;-1.478;2023-02-24T14:04:13;100241.78;;;17.28;100.00
24666;BME280;29726;53.532;-1.478;2023-02-24T14:07:02;100240.50;;;17.29;100.00
24666;BME280;29726;53.532;-1.478;2023-02-24T14:10:17;100255.38;;;17.35;100.00
24666;BME280;29726;53.532;-1.478;2023-02-24T14:13:15;100233.59;;;17.30;100.00
24666;BME280;29726;53.532;-1.478;2023-02-24T14:16:05;100245.88;;;17.38;100.00
24666;BME280;29726;53.532;-1.478;2023-02-24T14:18:57;100249.44;;;17.39;100.00
24666;BME280;29726;53.532;-1.478;2023-02-24T14:21:49;100247.66;;;17.41;100.00
24666;BME280;29726;53.532;-1.478;2023-02-24T14:24:34;100244.84;;;17.41;100.00
24666;BME280;29726;53.532;-1.478;2023-02-24T14:27:25;100236.16;;;17.34;100.00
24666;BME280;29726;53.532;-1.478;2023-02-24T14:30:32;100243.53;;;17.42;100.00
24666;BME280;29726;53.532;-1.478;2023-02-24T14:33:26;100243.53;;;17.42;100.00
24666;BME280;29726;53.532;-1.478;2023-02-24T14:36:41;100248.91;;;17.46;100.00
24666;BME280;29726;53.532;-1.478;2023-02-24T14:39:28;100223.81;;;17.37;100.00
24666;BME280;29726;53.532;-1.478;2023-02-24T14:42:13;100242.72;;;17.53;100.00
24666;BME280;29726;53.532;-1.478;2023-02-24T14:44:58;100253.25;;;17.52;100.00
24666;BME280;29726;53.532;-1.478;2023-02-24T14:47:42;100244.50;;;17.50;100.00
24666;BME280;29726;53.532;-1.478;2023-02-24T14:50:29;100260.38;;;17.59;100.00
24666;BME280;29726;53.532;-1.478;2023-02-24T14:53:16;100249.34;;;17.61;100.00
24666;BME280;29726;53.532;-1.478;2023-02-24T14:56:04;100221.78;;;17.37;100.00
24666;BME280;29726;53.532;-1.478;2023-02-24T14:58:52;100246.81;;;17.57;100.00
24666;BME280;29726;53.532;-1.478;2023-02-24T15:01:39;100239.31;;;17.65;100.00
24666;BME280;29726;53.532;-1.478;2023-02-24T15:04:37;100250.56;;;17.71;100.00
24666;BME280;29726;53.532;-1.478;2023-02-24T15:07:29;100256.47;;;17.73;100.00
24666;BME280;29726;53.532;-1.478;2023-02-24T15:10:26;100265.97;;;17.70;100.00
24666;BME280;29726;53.532;-1.478;2023-02-24T15:13:17;100270.84;;;17.69;100.00
24666;BME280;29726;53.532;-1.478;2023-02-24T15:16:27;100273.41;;;17.73;100.00
24666;BME280;29726;53.532;-1.478;2023-02-24T15:19:32;100283.91;;;17.72;100.00
24666;BME280;29726;53.532;-1.478;2023-02-24T15:25:21;100280.84;;;17.70;100.00
24666;BME280;29726;53.532;-1.478;2023-02-24T15:28:19;100279.31;;;17.69;100.00
24666;BME280;29726;53.532;-1.478;2023-02-24T15:31:15;100276.25;;;17.67;100.00
24666;BME280;29726;53.532;-1.478;2023-02-24T15:34:01;100274.25;;;17.62;100.00
24666;BME280;29726;53.532;-1.478;2023-02-24T15:36:46;100276.56;;;17.58;100.00
24666;BME280;29726;53.532;-1.478;2023-02-24T15:39:33;100319.72;;;17.53;99.42